Terminal Aerodrome Forecast
Issued by NWS

Home | Current Version | Previous Version | Graphics & Text | Print | Product List | Glossary Off
Versions: 1 2 3 4 5 6 7 8 9 10 11 12 13 14 15 16 17 18 19

920
FTUS43 KBIS 241123
TAFJMS
TAF
KJMS 241123Z 2412/2512 33008KT P6SM OVC015
     FM241800 35008KT P6SM OVC025
     FM241900 34008KT P6SM OVC035
     FM250100 34010KT P6SM OVC015=

USA.gov is the U.S. government's official web portal to all federal, state and local government web resources and services.